»·PEaware :: N123YB KSBP-KBFL

N123YB :: KSBP-KBFL

FLIGHT INFORMATION

Flight Status: Arrived
Operator: Privately registered:
United States
More flights under this callsign
Pilot: Yonel B. (11973)
Aircraft: CESSNA 172 SKYHAWK
(C172)
More flights by this aircraft type
Origin: KSBP San Luis Co Regl
United States
Destination: KBFL Meadows
United States
More flights between these airports :: More routes between these airports
Route: +MQO EHF
File this flight plan on PilotEdge
Remarks: IFR PRACTICE
Altitude:
(Current/Filed)
7,000ft
Speed:
(Current/Filed)
110kts
Departed: 11-Jan-18 04:44 PM
Arrived: 11-Jan-18 05:58 PM
Distance/Time
Traveled:
79nm/1:13
Distance/Time
To Go:
Arrived

Flight Plot

Page will automatically refresh every two minutes.


Map Options




Map Legend


Flown Route
Filed Route
Departure Airport
Arrival Airport
Navaid (VOR, NDB)
Fix

Horizontal Profiles

Position Reports

Time Latitude Longitude Heading Altitude Ground
Speed
11-Jan-18 16:21 35.239077 -120.641581 350 215ft 0kts
11-Jan-18 16:22 35.239077 -120.641581 350 215ft 0kts
11-Jan-18 16:23 35.239361 -120.641643 79 215ft 0kts
11-Jan-18 16:24 35.239233 -120.641823 253 215ft 0kts
11-Jan-18 16:25 35.239233 -120.641823 253 215ft 0kts
11-Jan-18 16:26 35.239233 -120.641823 253 215ft 0kts
11-Jan-18 16:27 35.239233 -120.641823 253 215ft 0kts
11-Jan-18 16:28 35.239233 -120.641823 253 215ft 0kts
11-Jan-18 16:29 35.239233 -120.641823 253 215ft 0kts
11-Jan-18 16:30 35.239233 -120.641823 253 215ft 0kts
11-Jan-18 16:31 35.239233 -120.641823 253 215ft 0kts
11-Jan-18 16:32 35.239233 -120.641823 253 215ft 0kts
11-Jan-18 16:33 35.239233 -120.641823 253 215ft 0kts
11-Jan-18 16:34 35.239233 -120.641823 253 215ft 0kts
11-Jan-18 16:35 35.239233 -120.641823 253 215ft 0kts
11-Jan-18 16:36 35.239233 -120.641823 253 215ft 0kts
11-Jan-18 16:37 35.239233 -120.641823 253 215ft 0kts
11-Jan-18 16:38 35.239233 -120.641823 253 215ft 0kts
11-Jan-18 16:39 35.238834 -120.641813 152 215ft 6kts
11-Jan-18 16:40 35.238032 -120.640435 119 215ft 8kts
11-Jan-18 16:41 35.236963 -120.638438 122 215ft 6kts
11-Jan-18 16:42 35.235332 -120.635581 126 215ft 10kts
11-Jan-18 16:43 35.234235 -120.633648 126 215ft 4kts
11-Jan-18 16:44 35.233543 -120.632431 122 215ft 4kts
11-Jan-18 16:45 35.233239 -120.632088 246 215ft 0kts
11-Jan-18 16:46 35.233239 -120.632088 246 215ft 0kts
11-Jan-18 16:47 35.233239 -120.632088 246 215ft 0kts
11-Jan-18 16:48 35.233239 -120.632088 246 215ft 0kts
11-Jan-18 16:49 35.233230 -120.632168 277 215ft 1kts
11-Jan-18 16:50 35.235717 -120.638013 304 230ft 79kts
11-Jan-18 16:51 35.236887 -120.642089 269 215ft 0kts
11-Jan-18 16:52 35.233122 -120.632448 346 215ft 1kts
11-Jan-18 16:53 35.233269 -120.632406 204 215ft 0kts
11-Jan-18 16:54 35.233268 -120.632406 204 215ft 0kts
11-Jan-18 16:55 35.233109 -120.632503 213 215ft 0kts
11-Jan-18 16:56 35.234858 -120.636751 303 256ft 66kts
11-Jan-18 16:57 35.241989 -120.660305 287 1219ft 86kts
11-Jan-18 16:58 35.241874 -120.688391 272 2286ft 84kts
11-Jan-18 16:59 35.245552 -120.715394 296 3277ft 78kts
11-Jan-18 17:00 35.260979 -120.728695 35 4108ft 95kts
11-Jan-18 17:01 35.254611 -120.696804 150 4940ft 108kts
11-Jan-18 17:02 35.234447 -120.703615 278 5676ft 86kts
11-Jan-18 17:03 35.232683 -120.731982 258 6471ft 88kts
11-Jan-18 17:04 35.228141 -120.745005 268 6807ft 87kts
11-Jan-18 17:05 35.234183 -120.752751 3 6997ft 90kts
11-Jan-18 17:06 35.232946 -120.718878 107 7008ft 113kts
11-Jan-18 17:07 35.221077 -120.683670 123 6969ft 114kts
11-Jan-18 17:08 35.207603 -120.649438 102 6952ft 111kts
11-Jan-18 17:09 35.204457 -120.613597 71 6912ft 106kts
11-Jan-18 17:10 35.210921 -120.578867 69 6884ft 105kts
11-Jan-18 17:11 35.214525 -120.542632 63 6916ft 107kts
11-Jan-18 17:12 35.222568 -120.508004 76 6983ft 108kts
11-Jan-18 17:13 35.228620 -120.472310 59 7030ft 105kts
11-Jan-18 17:14 35.236241 -120.436928 66 7051ft 108kts
11-Jan-18 17:15 35.244242 -120.401059 71 7041ft 110kts
11-Jan-18 17:16 35.251141 -120.364754 72 7045ft 110kts
11-Jan-18 17:17 35.257505 -120.328121 76 7044ft 111kts
11-Jan-18 17:18 35.263126 -120.291289 68 7043ft 110kts
11-Jan-18 17:19 35.269531 -120.254618 64 7049ft 109kts
11-Jan-18 17:20 35.278030 -120.218805 67 7058ft 110kts
11-Jan-18 17:21 35.286762 -120.182443 65 6953ft 113kts
11-Jan-18 17:22 35.294785 -120.145404 74 6906ft 116kts
11-Jan-18 17:23 35.301915 -120.108711 65 6985ft 110kts
11-Jan-18 17:24 35.309394 -120.072261 70 7099ft 111kts
11-Jan-18 17:25 35.315820 -120.033393 70 7007ft 119kts
11-Jan-18 17:26 35.322942 -119.993753 70 6949ft 119kts
11-Jan-18 17:27 35.329803 -119.954780 70 7040ft 116kts
11-Jan-18 17:28 35.335434 -119.916023 67 7129ft 114kts
11-Jan-18 17:29 35.340608 -119.877248 70 7129ft 116kts
11-Jan-18 17:30 35.348024 -119.838476 74 6915ft 118kts
11-Jan-18 17:31 35.355763 -119.801674 63 6894ft 108kts
11-Jan-18 17:32 35.364908 -119.767887 63 7065ft 103kts
11-Jan-18 17:33 35.372251 -119.733636 73 7211ft 105kts
11-Jan-18 17:34 35.378749 -119.697038 71 7081ft 112kts
11-Jan-18 17:35 35.384201 -119.659682 70 6977ft 110kts
11-Jan-18 17:36 35.389137 -119.622951 70 7007ft 107kts
11-Jan-18 17:37 35.398029 -119.588338 63 7047ft 106kts
11-Jan-18 17:38 35.403253 -119.552741 100 7063ft 114kts
11-Jan-18 17:39 35.396023 -119.515371 92 7122ft 112kts
11-Jan-18 17:40 35.389054 -119.477910 98 7118ft 116kts
11-Jan-18 17:41 35.380024 -119.439440 102 7007ft 120kts
11-Jan-18 17:42 35.372383 -119.400707 98 6953ft 115kts
11-Jan-18 17:43 35.365607 -119.363207 98 7002ft 113kts
11-Jan-18 17:44 35.359090 -119.326060 91 7052ft 111kts
11-Jan-18 17:45 35.353814 -119.288581 97 7070ft 113kts
11-Jan-18 17:46 35.346982 -119.250391 98 7036ft 115kts
11-Jan-18 17:47 35.339833 -119.212334 97 7010ft 115kts
11-Jan-18 17:48 35.333893 -119.174222 98 6835ft 115kts
11-Jan-18 17:49 35.325920 -119.134264 98 6173ft 120kts
11-Jan-18 17:50 35.318713 -119.094855 99 5580ft 118kts
11-Jan-18 17:51 35.310914 -119.056163 99 5091ft 113kts
11-Jan-18 17:52 35.304124 -119.019707 98 4985ft 108kts
11-Jan-18 17:53 35.296660 -118.984391 97 4990ft 102kts
11-Jan-18 17:54 35.292245 -118.949997 100 5040ft 105kts
11-Jan-18 17:55 35.287090 -118.913060 97 4420ft 113kts
11-Jan-18 17:56 35.301810 -118.888515 343 3728ft 110kts
11-Jan-18 17:57 35.321521 -118.915222 302 3206ft 107kts
11-Jan-18 17:58 35.340054 -118.943877 321 2578ft 108kts
11-Jan-18 17:59 35.362143 -118.968318 315 2228ft 106kts
11-Jan-18 18:00 35.382290 -118.994266 317 1874ft 106kts
11-Jan-18 18:01 35.402975 -119.019585 315 1309ft 105kts
11-Jan-18 18:02 35.422792 -119.042983 316 871ft 64kts
11-Jan-18 18:03 35.435207 -119.057982 315 510ft 41kts
11-Jan-18 18:04 35.439885 -119.062642 351 510ft 21kts
11-Jan-18 18:05 35.442221 -119.064062 46 510ft 1kts
11-Jan-18 18:06 35.439310 -119.060600 138 510ft 15kts
11-Jan-18 18:07 35.437368 -119.057986 92 510ft 9kts
11-Jan-18 18:08 35.437446 -119.055821 93 510ft 0kts

Navigation Log

Ident Type
1. KSBP Airport
2. MQO Navaid
3. EHF Navaid
4. KBFL Airport